createdAt,value
2022-11-07T00:00:08.271Z,2
2022-11-07T00:01:51.624Z,2
2022-11-07T00:03:35.008Z,2
2022-11-07T00:08:44.869Z,2
2022-11-07T00:10:28.318Z,2
2022-11-07T00:12:11.670Z,2
2022-11-07T00:13:55.067Z,2
2022-11-07T00:15:38.450Z,2
2022-11-07T00:17:21.859Z,2
2022-11-07T00:19:05.256Z,2
2022-11-07T00:22:31.729Z,1
2022-11-07T00:24:15.122Z,2
2022-11-07T00:25:58.523Z,2
2022-11-07T00:27:41.912Z,1
2022-11-07T00:29:25.332Z,1
2022-11-07T00:31:08.708Z,2
2022-11-07T00:32:52.103Z,2
2022-11-07T00:34:35.500Z,2
2022-11-07T00:38:01.964Z,1
2022-11-07T00:39:45.361Z,2
2022-11-07T00:41:28.829Z,2
2022-11-07T00:43:12.169Z,1
2022-11-07T00:44:55.548Z,2
2022-11-07T00:46:38.943Z,3
2022-11-07T00:48:22.366Z,1
2022-11-07T00:50:05.742Z,2
2022-11-07T00:53:32.230Z,1
2022-11-07T00:55:15.605Z,2
2022-11-07T00:56:59.086Z,2
2022-11-07T00:58:42.407Z,2
2022-11-07T01:00:25.895Z,2
2022-11-07T01:02:09.227Z,1
2022-11-07T01:03:52.581Z,1
2022-11-07T01:05:35.995Z,1
2022-11-07T01:09:02.487Z,3
2022-11-07T01:10:45.881Z,2
2022-11-07T01:12:29.252Z,2
2022-11-07T01:14:12.715Z,2
2022-11-07T01:15:56.117Z,2
2022-11-07T01:17:39.430Z,2
2022-11-07T01:19:22.860Z,2
2022-11-07T01:21:06.238Z,2
2022-11-07T01:26:15.482Z,2
2022-11-07T01:27:58.877Z,2
2022-11-07T01:29:42.258Z,1
2022-11-07T01:31:25.659Z,2
2022-11-07T01:33:09.097Z,2
2022-11-07T01:34:52.452Z,2
2022-11-07T01:36:35.843Z,2
2022-11-07T01:38:19.240Z,1
2022-11-07T01:41:45.801Z,1
2022-11-07T01:43:29.187Z,1
2022-11-07T01:45:12.524Z,2
2022-11-07T01:46:55.910Z,2
2022-11-07T01:48:39.300Z,2
2022-11-07T01:50:22.701Z,1
2022-11-07T01:52:07.134Z,2
2022-11-07T01:53:49.494Z,2
2022-11-07T01:58:58.736Z,1
2022-11-07T02:00:42.127Z,2
2022-11-07T02:02:25.524Z,2
2022-11-07T02:04:08.926Z,2
2022-11-07T02:05:52.310Z,2
2022-11-07T02:07:35.706Z,2
2022-11-07T02:09:19.225Z,2
2022-11-07T02:11:02.503Z,2
2022-11-07T02:16:11.743Z,2
2022-11-07T02:17:55.152Z,2
2022-11-07T02:19:38.537Z,1
2022-11-07T02:21:21.942Z,2
2022-11-07T02:23:05.325Z,2
2022-11-07T02:24:48.738Z,2
2022-11-07T02:26:32.127Z,2
2022-11-07T02:28:15.516Z,1
2022-11-07T02:31:42.007Z,1
2022-11-07T02:33:25.393Z,2
2022-11-07T02:35:08.782Z,2
2022-11-07T02:36:52.179Z,1
2022-11-07T02:38:35.595Z,2
2022-11-07T02:40:18.979Z,1
2022-11-07T02:42:02.419Z,2
2022-11-07T02:43:45.772Z,2
2022-11-07T02:48:55.017Z,2
2022-11-07T02:50:38.398Z,2
2022-11-07T02:52:21.810Z,1
2022-11-07T02:54:05.204Z,2
2022-11-07T02:55:48.595Z,1
2022-11-07T02:57:31.985Z,2
2022-11-07T02:59:15.376Z,1
2022-11-07T03:00:58.784Z,2
2022-11-07T03:02:42.173Z,2
2022-11-07T03:04:25.896Z,2
2022-11-07T03:06:09.264Z,2
2022-11-07T03:07:52.674Z,1
2022-11-07T03:09:36.062Z,2
2022-11-07T03:11:19.477Z,1
2022-11-07T03:13:02.892Z,2
2022-11-07T03:14:46.258Z,2
2022-11-07T03:16:29.647Z,1
2022-11-07T03:18:13.082Z,1
2022-11-07T03:21:39.516Z,1
2022-11-07T03:23:22.994Z,1
2022-11-07T03:25:06.323Z,2
2022-11-07T03:26:49.704Z,2
2022-11-07T03:28:33.115Z,1
2022-11-07T03:30:16.506Z,2
2022-11-07T03:31:59.907Z,2
2022-11-07T03:33:43.289Z,2
2022-11-07T03:35:26.758Z,1
2022-11-07T03:38:53.195Z,2
2022-11-07T03:40:36.561Z,2
2022-11-07T03:42:20.017Z,2
2022-11-07T03:44:03.356Z,1
2022-11-07T03:45:46.738Z,2
2022-11-07T03:47:30.144Z,1
2022-11-07T03:49:13.544Z,1
2022-11-07T03:50:56.928Z,2
2022-11-07T03:52:40.374Z,1
2022-11-07T03:54:24.046Z,2
2022-11-07T03:56:07.439Z,1
2022-11-07T03:57:50.835Z,2
2022-11-07T03:59:34.229Z,2
2022-11-07T04:01:17.611Z,1
2022-11-07T04:03:01.013Z,2
2022-11-07T04:04:44.413Z,1
2022-11-07T04:06:27.812Z,2
2022-11-07T04:08:11.211Z,2
2022-11-07T04:11:37.706Z,2
2022-11-07T04:13:21.061Z,2
2022-11-07T04:15:04.475Z,1
2022-11-07T04:16:47.879Z,2
2022-11-07T04:18:31.261Z,1
2022-11-07T04:20:14.673Z,1
2022-11-07T04:21:58.056Z,2
2022-11-07T04:23:41.444Z,1
2022-11-07T04:25:24.844Z,1
2022-11-07T04:28:51.311Z,1
2022-11-07T04:30:34.710Z,2
2022-11-07T04:32:18.111Z,1
2022-11-07T04:34:01.558Z,1
2022-11-07T04:35:44.900Z,1
2022-11-07T04:37:28.334Z,2
2022-11-07T04:39:11.703Z,1
2022-11-07T04:40:55.094Z,2
2022-11-07T04:42:38.481Z,2
2022-11-07T04:44:21.889Z,1
2022-11-07T04:47:48.361Z,1
2022-11-07T04:49:31.746Z,1
2022-11-07T04:51:15.179Z,2
2022-11-07T04:52:58.547Z,1
2022-11-07T04:54:41.927Z,1
2022-11-07T04:56:25.325Z,1
2022-11-07T04:58:08.719Z,2
2022-11-07T04:59:52.121Z,1
2022-11-07T05:01:35.527Z,2
2022-11-07T05:05:01.994Z,1
2022-11-07T05:06:45.415Z,1
2022-11-07T05:08:28.789Z,2
2022-11-07T05:10:12.195Z,2
2022-11-07T05:11:55.575Z,1
2022-11-07T05:13:39.031Z,2
2022-11-07T05:15:22.359Z,1
2022-11-07T05:17:05.767Z,1
2022-11-07T05:18:49.166Z,2
2022-11-07T05:20:32.881Z,1
2022-11-07T05:22:16.278Z,1
2022-11-07T05:23:59.747Z,1
2022-11-07T05:25:43.060Z,2
2022-11-07T05:27:26.468Z,1
2022-11-07T05:29:09.860Z,1
2022-11-07T05:30:53.242Z,2
2022-11-07T05:32:36.674Z,2
2022-11-07T05:34:20.047Z,2
2022-11-07T05:37:46.522Z,2
2022-11-07T05:39:29.913Z,2
2022-11-07T05:41:13.298Z,1
2022-11-07T05:42:56.689Z,2
2022-11-07T05:44:40.102Z,1
2022-11-07T05:46:23.498Z,2
2022-11-07T05:48:06.904Z,2
2022-11-07T05:49:50.289Z,1
2022-11-07T05:54:59.536Z,2
2022-11-07T05:56:42.916Z,1
2022-11-07T05:58:26.380Z,2
2022-11-07T06:00:09.717Z,1
2022-11-07T06:01:53.103Z,1
2022-11-07T06:03:36.589Z,2
2022-11-07T06:05:19.915Z,1
2022-11-07T06:07:03.296Z,2
2022-11-07T06:08:46.706Z,1
2022-11-07T06:10:30.506Z,2
2022-11-07T06:12:13.874Z,2
2022-11-07T06:13:57.267Z,2
2022-11-07T06:15:40.599Z,1
2022-11-07T06:17:23.987Z,1
2022-11-07T06:19:07.378Z,2
2022-11-07T06:20:50.842Z,2
2022-11-07T06:22:34.173Z,1
2022-11-07T06:24:17.619Z,2
2022-11-07T06:27:44.049Z,1
2022-11-07T06:29:27.476Z,1
2022-11-07T06:31:10.846Z,2
2022-11-07T06:32:54.246Z,1
2022-11-07T06:34:37.705Z,1
2022-11-07T06:36:21.026Z,1
2022-11-07T06:38:04.417Z,1
2022-11-07T06:39:47.806Z,1
2022-11-07T06:44:57.058Z,1
2022-11-07T06:46:40.465Z,1
2022-11-07T06:48:23.897Z,2
2022-11-07T06:50:07.261Z,1
2022-11-07T06:51:50.645Z,1
2022-11-07T06:53:34.048Z,1
2022-11-07T06:55:17.438Z,2
2022-11-07T06:57:00.870Z,1
2022-11-07T07:02:10.074Z,2
2022-11-07T07:03:53.574Z,1
2022-11-07T07:05:36.939Z,2
2022-11-07T07:07:20.303Z,1
2022-11-07T07:09:03.707Z,1
2022-11-07T07:10:47.056Z,2
2022-11-07T07:12:30.551Z,2
2022-11-07T07:14:13.842Z,2
2022-11-07T07:19:23.093Z,2
2022-11-07T07:21:06.487Z,2
2022-11-07T07:22:49.938Z,1
2022-11-07T07:24:33.303Z,2
2022-11-07T07:26:16.722Z,2
2022-11-07T07:28:00.103Z,2
2022-11-07T07:29:43.455Z,2
2022-11-07T07:31:26.859Z,1
2022-11-07T07:36:36.103Z,1
2022-11-07T07:38:19.480Z,2
2022-11-07T07:40:02.910Z,1
2022-11-07T07:41:46.275Z,2
2022-11-07T07:43:29.685Z,44
2022-11-07T07:45:13.083Z,43
2022-11-07T07:46:56.482Z,44
2022-11-07T07:48:39.873Z,47
2022-11-07T07:50:23.273Z,47
2022-11-07T07:52:06.970Z,49
2022-11-07T07:53:50.376Z,51
2022-11-07T07:55:33.759Z,58
2022-11-07T07:57:17.148Z,58
2022-11-07T07:59:00.644Z,60
2022-11-07T08:00:43.975Z,118
2022-11-07T08:02:27.348Z,117
2022-11-07T08:04:10.829Z,127
2022-11-07T08:09:20.084Z,104
2022-11-07T08:11:03.387Z,108
2022-11-07T08:12:46.785Z,112
2022-11-07T08:14:30.176Z,118
2022-11-07T08:16:13.614Z,121
2022-11-07T08:17:56.980Z,118
2022-11-07T08:19:40.390Z,117
2022-11-07T08:21:23.769Z,116
2022-11-07T08:24:50.309Z,115
2022-11-07T08:26:33.770Z,114
2022-11-07T08:28:17.023Z,106
2022-11-07T08:30:00.522Z,106
2022-11-07T08:31:43.815Z,112
2022-11-07T08:33:27.216Z,107
2022-11-07T08:35:10.631Z,103
2022-11-07T08:36:54.040Z,99
2022-11-07T08:42:03.274Z,93
2022-11-07T08:43:46.645Z,90
2022-11-07T08:45:30.093Z,87
2022-11-07T08:47:13.434Z,91
2022-11-07T08:48:56.844Z,90
2022-11-07T08:50:40.222Z,89
2022-11-07T08:52:23.617Z,90
2022-11-07T08:54:07.014Z,94
2022-11-07T08:57:33.548Z,103
2022-11-07T08:59:16.962Z,109
2022-11-07T09:01:00.429Z,114
2022-11-07T09:02:43.686Z,118
2022-11-07T09:04:27.087Z,121
2022-11-07T09:06:10.500Z,125
2022-11-07T09:07:53.884Z,130
2022-11-07T09:09:37.262Z,133
2022-11-07T09:13:03.736Z,144
2022-11-07T09:14:47.138Z,144
2022-11-07T09:16:30.531Z,130
2022-11-07T09:18:13.959Z,130
2022-11-07T09:19:57.405Z,126
2022-11-07T09:21:40.722Z,124
2022-11-07T09:23:24.113Z,126
2022-11-07T09:25:07.491Z,128
2022-11-07T09:30:16.742Z,127
2022-11-07T09:32:00.211Z,128
2022-11-07T09:33:43.529Z,145
2022-11-07T09:35:26.937Z,139
2022-11-07T09:37:10.359Z,133
2022-11-07T09:38:53.730Z,136
2022-11-07T09:40:37.110Z,138
2022-11-07T09:42:20.602Z,140
2022-11-07T09:45:47.049Z,147
2022-11-07T09:47:30.512Z,144
2022-11-07T09:49:13.843Z,137
2022-11-07T09:50:57.288Z,134
2022-11-07T09:52:40.577Z,133
2022-11-07T09:54:24.049Z,134
2022-11-07T09:56:07.374Z,137
2022-11-07T09:57:50.781Z,136
2022-11-07T09:59:34.164Z,135
2022-11-07T10:03:00.753Z,137
2022-11-07T10:04:44.043Z,142
2022-11-07T10:06:27.471Z,149
2022-11-07T10:08:10.816Z,145
2022-11-07T10:09:54.221Z,144
2022-11-07T10:11:37.615Z,141
2022-11-07T10:13:21.014Z,138
2022-11-07T10:15:04.432Z,137
2022-11-07T10:18:30.955Z,140
2022-11-07T10:20:14.268Z,143
2022-11-07T10:21:57.689Z,144
2022-11-07T10:23:41.170Z,145
2022-11-07T10:25:24.503Z,151
2022-11-07T10:27:07.946Z,394
2022-11-07T10:28:51.300Z,319
2022-11-07T10:30:34.650Z,273
2022-11-07T10:32:18.035Z,375
2022-11-07T10:34:01.813Z,286
2022-11-07T10:35:45.338Z,256
2022-11-07T10:37:28.539Z,252
2022-11-07T10:39:11.975Z,282
2022-11-07T10:40:55.332Z,297
2022-11-07T10:42:38.731Z,571
2022-11-07T10:44:22.137Z,574
2022-11-07T10:46:05.644Z,604
2022-11-07T10:51:14.763Z,660
2022-11-07T10:52:58.205Z,684
2022-11-07T10:54:41.620Z,679
2022-11-07T10:56:24.951Z,647
2022-11-07T10:58:08.427Z,668
2022-11-07T10:59:51.765Z,698
2022-11-07T11:01:35.187Z,584
2022-11-07T11:03:18.525Z,611
2022-11-07T11:05:01.935Z,575
2022-11-07T11:06:45.645Z,660
2022-11-07T11:08:29.063Z,615
2022-11-07T11:10:12.450Z,585
2022-11-07T11:11:55.820Z,517
2022-11-07T11:13:39.273Z,472
2022-11-07T11:15:22.671Z,455
2022-11-07T11:17:06.041Z,448
2022-11-07T11:18:49.407Z,469
2022-11-07T11:23:58.644Z,569
2022-11-07T11:25:42.061Z,734
2022-11-07T11:27:25.443Z,673
2022-11-07T11:29:08.843Z,744
2022-11-07T11:30:52.278Z,748
2022-11-07T11:32:35.613Z,777
2022-11-07T11:34:19.073Z,778
2022-11-07T11:36:02.419Z,744
2022-11-07T11:41:11.701Z,742
2022-11-07T11:42:55.075Z,779
2022-11-07T11:44:38.490Z,748
2022-11-07T11:46:21.844Z,778
2022-11-07T11:48:05.232Z,758
2022-11-07T11:49:48.683Z,727
2022-11-07T11:51:32.029Z,698
2022-11-07T11:53:15.546Z,566
2022-11-07T11:58:24.695Z,490
2022-11-07T12:00:08.065Z,461
2022-11-07T12:01:51.467Z,449
2022-11-07T12:03:34.958Z,469
2022-11-07T12:05:18.284Z,473
2022-11-07T12:07:01.651Z,450
2022-11-07T12:08:45.128Z,442
2022-11-07T12:10:28.486Z,418
2022-11-07T12:15:37.721Z,380
2022-11-07T12:17:21.127Z,371
2022-11-07T12:19:04.558Z,367
2022-11-07T12:20:47.872Z,388
2022-11-07T12:22:31.276Z,388
2022-11-07T12:24:14.674Z,371
2022-11-07T12:25:58.055Z,361
2022-11-07T12:27:41.470Z,384
2022-11-07T12:31:07.928Z,383
2022-11-07T12:32:51.334Z,364
2022-11-07T12:34:34.722Z,344
2022-11-07T12:36:18.197Z,344
2022-11-07T12:38:01.521Z,339
2022-11-07T12:39:44.907Z,358
2022-11-07T12:41:28.314Z,406
2022-11-07T12:43:11.763Z,440
2022-11-07T12:46:38.184Z,471
2022-11-07T12:48:21.570Z,475
2022-11-07T12:50:05.012Z,470
2022-11-07T12:51:48.363Z,461
2022-11-07T12:53:31.761Z,462
2022-11-07T12:55:15.162Z,470
2022-11-07T12:58:41.960Z,465
2022-11-07T13:02:08.440Z,417
2022-11-07T13:03:51.807Z,405
2022-11-07T13:05:35.229Z,384
2022-11-07T13:07:18.619Z,366
2022-11-07T13:09:02.007Z,361
2022-11-07T13:10:45.394Z,354
2022-11-07T13:12:28.806Z,337
2022-11-07T13:14:12.207Z,335
2022-11-07T13:19:21.593Z,363
2022-11-07T13:21:04.900Z,542
2022-11-07T13:22:48.261Z,516
2022-11-07T13:24:31.636Z,448
2022-11-07T13:26:15.031Z,252
2022-11-07T13:27:58.480Z,263
2022-11-07T13:29:41.898Z,259
2022-11-07T13:31:25.217Z,303
2022-11-07T13:36:34.452Z,293
2022-11-07T13:38:17.854Z,301
2022-11-07T13:40:01.248Z,414
2022-11-07T13:41:44.646Z,414
2022-11-07T13:43:28.035Z,441
2022-11-07T13:45:11.469Z,433
2022-11-07T13:46:54.838Z,304
2022-11-07T13:48:38.233Z,384
2022-11-07T13:52:04.714Z,383
2022-11-07T13:53:48.119Z,377
2022-11-07T13:55:31.491Z,391
2022-11-07T13:57:14.875Z,331
2022-11-07T13:58:58.291Z,268
2022-11-07T14:00:41.702Z,249
2022-11-07T14:02:25.078Z,225
2022-11-07T14:04:08.462Z,214
2022-11-07T14:09:17.714Z,221
2022-11-07T14:11:01.132Z,281
2022-11-07T14:12:44.490Z,255
2022-11-07T14:14:27.941Z,278
2022-11-07T14:16:11.319Z,322
2022-11-07T14:17:54.687Z,338
2022-11-07T14:19:38.155Z,341
2022-11-07T14:21:21.496Z,339
2022-11-07T14:24:47.971Z,291
2022-11-07T14:26:31.432Z,267
2022-11-07T14:28:14.754Z,258
2022-11-07T14:29:58.170Z,256
2022-11-07T14:31:41.619Z,249
2022-11-07T14:33:25.048Z,235
2022-11-07T14:35:08.329Z,219
2022-11-07T14:36:51.783Z,215
2022-11-07T14:42:01.105Z,222
2022-11-07T14:43:44.372Z,215
2022-11-07T14:45:27.760Z,206
2022-11-07T14:47:11.158Z,202
2022-11-07T14:48:54.555Z,205
2022-11-07T14:50:37.948Z,206
2022-11-07T14:52:21.407Z,203
2022-11-07T14:54:04.836Z,199
2022-11-07T14:59:13.994Z,170
2022-11-07T15:00:57.379Z,155
2022-11-07T15:02:40.817Z,138
2022-11-07T15:04:24.208Z,124
2022-11-07T15:06:07.665Z,110
2022-11-07T15:07:51.034Z,98
2022-11-07T15:09:34.423Z,90
2022-11-07T15:11:17.826Z,79
2022-11-07T15:13:01.219Z,70
2022-11-07T15:14:44.855Z,63
2022-11-07T15:16:28.265Z,60
2022-11-07T15:18:11.733Z,58
2022-11-07T15:19:55.061Z,58
2022-11-07T15:21:38.488Z,59
2022-11-07T15:23:21.847Z,60
2022-11-07T15:25:05.249Z,57
2022-11-07T15:26:48.694Z,57
2022-11-07T15:28:32.103Z,72
2022-11-07T15:31:58.510Z,66
2022-11-07T15:33:41.899Z,65
2022-11-07T15:35:25.333Z,61
2022-11-07T15:37:08.680Z,56
2022-11-07T15:38:52.105Z,46
2022-11-07T15:40:35.475Z,52
2022-11-07T15:42:19.065Z,41
2022-11-07T15:44:02.347Z,40
2022-11-07T15:47:28.868Z,25
2022-11-07T15:49:12.245Z,22
2022-11-07T15:50:55.650Z,20
2022-11-07T15:52:39.043Z,20
2022-11-07T15:54:22.328Z,18
2022-11-07T15:56:05.718Z,19
2022-11-07T15:57:49.154Z,18
2022-11-07T15:59:32.567Z,17
2022-11-07T16:01:15.915Z,14
2022-11-07T16:02:59.626Z,12
2022-11-07T16:04:43.023Z,11
2022-11-07T16:06:26.516Z,11
2022-11-07T16:08:09.808Z,10
2022-11-07T16:09:53.199Z,9
2022-11-07T16:11:36.600Z,9
2022-11-07T16:13:20.045Z,8
2022-11-07T16:15:03.421Z,9
2022-11-07T16:16:46.785Z,6
2022-11-07T16:18:30.501Z,8
2022-11-07T16:20:13.901Z,8
2022-11-07T16:21:57.293Z,8
2022-11-07T16:23:40.676Z,8
2022-11-07T16:25:24.088Z,7
2022-11-07T16:27:07.576Z,5
2022-11-07T16:28:50.875Z,8
2022-11-07T16:30:34.270Z,8
2022-11-07T16:32:17.675Z,9
2022-11-07T16:35:44.143Z,8
2022-11-07T16:37:27.585Z,8
2022-11-07T16:39:10.924Z,9
2022-11-07T16:40:54.343Z,9
2022-11-07T16:42:37.744Z,9
2022-11-07T16:44:21.106Z,8
2022-11-07T16:46:04.503Z,9
2022-11-07T16:47:47.901Z,8
2022-11-07T16:51:14.392Z,9
2022-11-07T16:52:57.788Z,8
2022-11-07T16:54:41.169Z,9
2022-11-07T16:56:24.594Z,8
2022-11-07T16:58:07.960Z,7
2022-11-07T16:59:51.370Z,9
2022-11-07T17:01:34.746Z,16
2022-11-07T17:03:18.165Z,9
2022-11-07T17:06:44.628Z,9
2022-11-07T17:08:28.030Z,9
2022-11-07T17:10:11.423Z,8
2022-11-07T17:11:54.825Z,9
2022-11-07T17:13:38.265Z,8
2022-11-07T17:15:21.599Z,9
2022-11-07T17:17:05.006Z,9
2022-11-07T17:18:48.456Z,9
2022-11-07T17:22:14.906Z,9
2022-11-07T17:23:58.262Z,9
2022-11-07T17:25:41.698Z,9
2022-11-07T17:27:25.116Z,9
2022-11-07T17:29:08.453Z,9
2022-11-07T17:30:51.854Z,9
2022-11-07T17:32:35.250Z,9
2022-11-07T17:34:18.685Z,9
2022-11-07T17:39:27.883Z,9
2022-11-07T17:41:11.275Z,9
2022-11-07T17:42:54.678Z,9
2022-11-07T17:44:38.080Z,9
2022-11-07T17:46:21.475Z,9
2022-11-07T17:48:04.858Z,7
2022-11-07T17:49:48.250Z,9
2022-11-07T17:51:31.654Z,7
2022-11-07T17:54:58.124Z,9
2022-11-07T17:56:41.543Z,8
2022-11-07T17:58:24.911Z,9
2022-11-07T18:00:08.312Z,9
2022-11-07T18:01:51.772Z,9
2022-11-07T18:03:35.102Z,9
2022-11-07T18:05:18.496Z,9
2022-11-07T18:07:01.956Z,9
2022-11-07T18:12:11.138Z,8
2022-11-07T18:13:54.563Z,9
2022-11-07T18:15:37.939Z,9
2022-11-07T18:17:21.413Z,9
2022-11-07T18:19:04.797Z,8
2022-11-07T18:20:48.132Z,9
2022-11-07T18:22:31.527Z,9
2022-11-07T18:24:15.027Z,9
2022-11-07T18:27:41.459Z,8
2022-11-07T18:29:24.848Z,9
2022-11-07T18:31:08.179Z,8
2022-11-07T18:32:51.586Z,9
2022-11-07T18:34:34.971Z,8
2022-11-07T18:36:18.380Z,9
2022-11-07T18:38:01.757Z,8
2022-11-07T18:39:45.164Z,9
2022-11-07T18:44:54.400Z,8
2022-11-07T18:46:37.807Z,9
2022-11-07T18:48:21.299Z,9
2022-11-07T18:50:04.585Z,9
2022-11-07T18:51:48.008Z,8
2022-11-07T18:53:31.393Z,9
2022-11-07T18:55:14.774Z,8
2022-11-07T18:56:58.254Z,9
2022-11-07T18:58:41.560Z,8
2022-11-07T19:00:25.351Z,8
2022-11-07T19:02:08.665Z,9
2022-11-07T19:03:52.186Z,9
2022-11-07T19:05:35.508Z,9
2022-11-07T19:07:18.892Z,9
2022-11-07T19:09:02.292Z,9
2022-11-07T19:10:45.656Z,8
2022-11-07T19:12:29.055Z,9
2022-11-07T19:17:38.321Z,8
2022-11-07T19:19:21.753Z,8
2022-11-07T19:21:05.109Z,9
2022-11-07T19:22:48.503Z,9
2022-11-07T19:24:31.881Z,9
2022-11-07T19:26:15.277Z,9
2022-11-07T19:27:58.740Z,9
2022-11-07T19:29:42.067Z,8
2022-11-07T19:33:08.586Z,9
2022-11-07T19:34:51.930Z,8
2022-11-07T19:36:35.330Z,9
2022-11-07T19:38:18.738Z,9
2022-11-07T19:40:02.163Z,9
2022-11-07T19:41:45.566Z,9
2022-11-07T19:43:28.916Z,9
2022-11-07T19:45:12.328Z,9
2022-11-07T19:50:21.571Z,9
2022-11-07T19:52:05.078Z,9
2022-11-07T19:53:48.366Z,9
2022-11-07T19:55:31.745Z,9
2022-11-07T19:57:15.137Z,10
2022-11-07T19:58:58.541Z,9
2022-11-07T20:00:41.925Z,9
2022-11-07T20:02:25.335Z,9
2022-11-07T20:05:51.800Z,9
2022-11-07T20:07:35.198Z,9
2022-11-07T20:09:18.591Z,9
2022-11-07T20:11:02.075Z,9
2022-11-07T20:12:45.419Z,9
2022-11-07T20:14:28.780Z,9
2022-11-07T20:16:12.173Z,10
2022-11-07T20:17:55.577Z,8
2022-11-07T20:23:04.842Z,8
2022-11-07T20:24:48.357Z,6
2022-11-07T20:26:31.689Z,8
2022-11-07T20:28:15.000Z,8
2022-11-07T20:29:58.439Z,9
2022-11-07T20:31:41.883Z,9
2022-11-07T20:33:25.192Z,9
2022-11-07T20:35:08.688Z,9
2022-11-07T20:38:35.141Z,8
2022-11-07T20:40:18.548Z,9
2022-11-07T20:42:01.857Z,9
2022-11-07T20:43:45.320Z,9
2022-11-07T20:45:28.808Z,9
2022-11-07T20:47:12.263Z,10
2022-11-07T20:48:55.615Z,8
2022-11-07T20:50:39.066Z,9
2022-11-07T20:55:48.246Z,9
2022-11-07T20:57:31.669Z,9
2022-11-07T20:59:15.031Z,10
2022-11-07T21:00:58.445Z,9
2022-11-07T21:02:41.858Z,9
2022-11-07T21:04:25.214Z,8
2022-11-07T21:06:08.458Z,9
2022-11-07T21:07:51.851Z,9
2022-11-07T21:13:01.107Z,9
2022-11-07T21:14:44.479Z,10
2022-11-07T21:16:27.890Z,9
2022-11-07T21:18:11.284Z,9
2022-11-07T21:19:54.680Z,10
2022-11-07T21:21:38.055Z,9
2022-11-07T21:23:21.478Z,9
2022-11-07T21:25:04.872Z,9
2022-11-07T21:30:14.118Z,8
2022-11-07T21:31:57.494Z,8
2022-11-07T21:33:40.889Z,9
2022-11-07T21:35:24.278Z,8
2022-11-07T21:37:07.694Z,8
2022-11-07T21:38:51.084Z,8
2022-11-07T21:40:34.469Z,8
2022-11-07T21:42:17.880Z,8
2022-11-07T21:45:44.358Z,8
2022-11-07T21:47:27.739Z,8
2022-11-07T21:49:11.191Z,8
2022-11-07T21:50:54.618Z,8
2022-11-07T21:52:37.931Z,8
2022-11-07T21:54:21.328Z,8
2022-11-07T21:56:04.725Z,8
2022-11-07T21:57:48.119Z,8
2022-11-07T21:59:31.513Z,8
2022-11-07T22:02:58.011Z,9
2022-11-07T22:04:41.384Z,8
2022-11-07T22:06:24.787Z,9
2022-11-07T22:08:08.194Z,9
2022-11-07T22:09:51.574Z,8
2022-11-07T22:11:34.974Z,9
2022-11-07T22:13:18.366Z,8
2022-11-07T22:15:01.824Z,8
2022-11-07T22:20:11.048Z,9
2022-11-07T22:21:54.438Z,8
2022-11-07T22:23:37.790Z,8
2022-11-07T22:25:21.200Z,8
2022-11-07T22:27:04.613Z,9
2022-11-07T22:28:47.976Z,9
2022-11-07T22:30:31.381Z,10
2022-11-07T22:32:14.785Z,8
2022-11-07T22:33:58.173Z,9
2022-11-07T22:35:41.865Z,9
2022-11-07T22:37:25.266Z,9
2022-11-07T22:39:08.675Z,8
2022-11-07T22:40:52.061Z,8
2022-11-07T22:42:35.465Z,8
2022-11-07T22:44:18.945Z,9
2022-11-07T22:46:02.247Z,9
2022-11-07T22:47:45.658Z,9
2022-11-07T22:49:29.032Z,9
2022-11-07T22:52:55.517Z,9
2022-11-07T22:54:38.901Z,8
2022-11-07T22:56:22.346Z,8
2022-11-07T22:58:05.728Z,9
2022-11-07T22:59:49.095Z,9
2022-11-07T23:01:32.531Z,9
2022-11-07T23:03:15.901Z,9
2022-11-07T23:04:59.302Z,2
2022-11-07T23:10:08.532Z,2
2022-11-07T23:11:51.939Z,2
2022-11-07T23:13:35.312Z,1
2022-11-07T23:15:18.733Z,1
2022-11-07T23:17:02.109Z,2
2022-11-07T23:18:45.516Z,2
2022-11-07T23:20:28.898Z,2
2022-11-07T23:22:12.310Z,2
2022-11-07T23:23:55.702Z,2
2022-11-07T23:27:22.171Z,2
2022-11-07T23:29:05.567Z,2
2022-11-07T23:30:48.962Z,2
2022-11-07T23:32:32.366Z,1
2022-11-07T23:34:15.756Z,2
2022-11-07T23:35:59.178Z,2
2022-11-07T23:37:42.549Z,2
2022-11-07T23:39:25.951Z,1
2022-11-07T23:41:09.351Z,2
2022-11-07T23:44:35.819Z,2
2022-11-07T23:46:19.199Z,1
2022-11-07T23:48:02.631Z,2
2022-11-07T23:49:46.045Z,0
2022-11-07T23:51:29.390Z,2
2022-11-07T23:53:12.802Z,2
2022-11-07T23:54:56.204Z,1
2022-11-07T23:56:39.605Z,2
